sensor_id;sensor_type;location;lat;lon;timestamp;temperature;humidity
4107;DHT22;21906;50.812;7.132;2022-12-08T00:01:13;6.80;75.80
4107;DHT22;21906;50.812;7.132;2022-12-08T00:03:40;6.70;75.90
4107;DHT22;21906;50.812;7.132;2022-12-08T00:06:07;6.70;76.00
4107;DHT22;21906;50.812;7.132;2022-12-08T00:08:55;6.70;76.30
4107;DHT22;21906;50.812;7.132;2022-12-08T00:11:39;6.70;76.20
4107;DHT22;21906;50.812;7.132;2022-12-08T00:14:05;6.70;76.00
4107;DHT22;21906;50.812;7.132;2022-12-08T00:16:31;6.70;76.20
4107;DHT22;21906;50.812;7.132;2022-12-08T00:18:56;6.70;76.30
4107;DHT22;21906;50.812;7.132;2022-12-08T00:21:22;6.70;76.20
4107;DHT22;21906;50.812;7.132;2022-12-08T00:23:48;6.70;76.30
4107;DHT22;21906;50.812;7.132;2022-12-08T00:26:13;6.70;76.30
4107;DHT22;21906;50.812;7.132;2022-12-08T00:28:39;6.70;76.20
4107;DHT22;21906;50.812;7.132;2022-12-08T00:31:09;6.70;76.20
4107;DHT22;21906;50.812;7.132;2022-12-08T00:33:35;6.80;76.30
4107;DHT22;21906;50.812;7.132;2022-12-08T00:36:12;6.80;76.30
4107;DHT22;21906;50.812;7.132;2022-12-08T00:38:38;6.80;76.20
4107;DHT22;21906;50.812;7.132;2022-12-08T00:41:12;6.90;76.30
4107;DHT22;21906;50.812;7.132;2022-12-08T00:43:38;6.90;76.10
4107;DHT22;21906;50.812;7.132;2022-12-08T00:46:04;6.90;76.10
4107;DHT22;21906;50.812;7.132;2022-12-08T00:48:30;6.90;75.80
4107;DHT22;21906;50.812;7.132;2022-12-08T00:50:55;6.90;76.00
4107;DHT22;21906;50.812;7.132;2022-12-08T00:53:21;6.90;76.00
4107;DHT22;21906;50.812;7.132;2022-12-08T00:55:46;6.90;75.90
4107;DHT22;21906;50.812;7.132;2022-12-08T00:58:12;6.90;75.90
4107;DHT22;21906;50.812;7.132;2022-12-08T01:00:40;7.00;75.70
4107;DHT22;21906;50.812;7.132;2022-12-08T01:03:09;7.00;75.70
4107;DHT22;21906;50.812;7.132;2022-12-08T01:05:34;7.00;75.60
4107;DHT22;21906;50.812;7.132;2022-12-08T01:08:00;7.00;75.60
4107;DHT22;21906;50.812;7.132;2022-12-08T01:10:26;7.00;75.50
4107;DHT22;21906;50.812;7.132;2022-12-08T01:12:51;7.00;75.50
4107;DHT22;21906;50.812;7.132;2022-12-08T01:15:17;7.00;75.40
4107;DHT22;21906;50.812;7.132;2022-12-08T01:17:43;7.00;75.20
4107;DHT22;21906;50.812;7.132;2022-12-08T01:20:08;7.00;75.30
4107;DHT22;21906;50.812;7.132;2022-12-08T01:22:34;7.10;75.40
4107;DHT22;21906;50.812;7.132;2022-12-08T01:25:02;7.00;75.40
4107;DHT22;21906;50.812;7.132;2022-12-08T01:27:28;7.10;75.40
4107;DHT22;21906;50.812;7.132;2022-12-08T01:29:54;7.10;75.40
4107;DHT22;21906;50.812;7.132;2022-12-08T01:32:19;7.10;75.40
4107;DHT22;21906;50.812;7.132;2022-12-08T01:34:45;7.10;75.50
4107;DHT22;21906;50.812;7.132;2022-12-08T01:37:10;7.10;75.40
4107;DHT22;21906;50.812;7.132;2022-12-08T01:39:37;7.20;75.40
4107;DHT22;21906;50.812;7.132;2022-12-08T01:42:03;7.10;75.20
4107;DHT22;21906;50.812;7.132;2022-12-08T01:46:54;7.10;75.30
4107;DHT22;21906;50.812;7.132;2022-12-08T01:49:26;7.10;75.10
4107;DHT22;21906;50.812;7.132;2022-12-08T01:52:12;7.10;75.20
4107;DHT22;21906;50.812;7.132;2022-12-08T01:54:54;7.10;75.40
4107;DHT22;21906;50.812;7.132;2022-12-08T01:58:19;7.10;75.30
4107;DHT22;21906;50.812;7.132;2022-12-08T02:00:24;7.00;75.30
4107;DHT22;21906;50.812;7.132;2022-12-08T02:02:52;7.10;75.20
4107;DHT22;21906;50.812;7.132;2022-12-08T02:05:21;7.00;75.10
4107;DHT22;21906;50.812;7.132;2022-12-08T02:07:48;7.00;75.20
4107;DHT22;21906;50.812;7.132;2022-12-08T02:10:18;7.00;75.10
4107;DHT22;21906;50.812;7.132;2022-12-08T02:12:46;7.00;75.20
4107;DHT22;21906;50.812;7.132;2022-12-08T02:15:13;7.00;75.20
4107;DHT22;21906;50.812;7.132;2022-12-08T02:20:32;7.10;75.20
4107;DHT22;21906;50.812;7.132;2022-12-08T02:34:27;7.10;74.80
4107;DHT22;21906;50.812;7.132;2022-12-08T02:42:39;7.20;74.60
4107;DHT22;21906;50.812;7.132;2022-12-08T02:47:36;7.20;74.40
4107;DHT22;21906;50.812;7.132;2022-12-08T02:50:03;7.20;74.40
4107;DHT22;21906;50.812;7.132;2022-12-08T02:59:55;7.00;74.60
4107;DHT22;21906;50.812;7.132;2022-12-08T03:10:21;7.10;74.70
4107;DHT22;21906;50.812;7.132;2022-12-08T03:12:55;7.10;74.60
4107;DHT22;21906;50.812;7.132;2022-12-08T03:15:23;7.10;74.70
4107;DHT22;21906;50.812;7.132;2022-12-08T03:17:56;7.00;74.50
4107;DHT22;21906;50.812;7.132;2022-12-08T03:20:24;6.90;74.80
4107;DHT22;21906;50.812;7.132;2022-12-08T03:22:51;6.90;75.00
4107;DHT22;21906;50.812;7.132;2022-12-08T03:25:21;6.70;75.30
4107;DHT22;21906;50.812;7.132;2022-12-08T03:27:47;6.70;75.20
4107;DHT22;21906;50.812;7.132;2022-12-08T03:30:13;6.60;75.20
4107;DHT22;21906;50.812;7.132;2022-12-08T03:35:15;6.70;75.60
4107;DHT22;21906;50.812;7.132;2022-12-08T03:37:42;6.70;75.20
4107;DHT22;21906;50.812;7.132;2022-12-08T03:40:10;6.80;75.30
4107;DHT22;21906;50.812;7.132;2022-12-08T03:42:36;6.80;75.30
4107;DHT22;21906;50.812;7.132;2022-12-08T03:45:02;6.90;75.30
4107;DHT22;21906;50.812;7.132;2022-12-08T03:47:29;6.90;75.50
4107;DHT22;21906;50.812;7.132;2022-12-08T03:49:54;6.90;75.70
4107;DHT22;21906;50.812;7.132;2022-12-08T03:52:20;6.90;75.70
4107;DHT22;21906;50.812;7.132;2022-12-08T03:54:45;6.90;75.80
4107;DHT22;21906;50.812;7.132;2022-12-08T03:57:11;6.90;75.90
4107;DHT22;21906;50.812;7.132;2022-12-08T03:59:37;7.00;75.80
4107;DHT22;21906;50.812;7.132;2022-12-08T04:02:03;7.00;75.60
4107;DHT22;21906;50.812;7.132;2022-12-08T04:04:28;7.00;75.60
4107;DHT22;21906;50.812;7.132;2022-12-08T04:06:54;7.00;75.50
4107;DHT22;21906;50.812;7.132;2022-12-08T04:09:19;6.90;75.50
4107;DHT22;21906;50.812;7.132;2022-12-08T04:11:45;6.80;75.80
4107;DHT22;21906;50.812;7.132;2022-12-08T04:14:10;6.80;76.00
4107;DHT22;21906;50.812;7.132;2022-12-08T04:16:36;6.60;76.20
4107;DHT22;21906;50.812;7.132;2022-12-08T04:19:02;6.60;76.60
4107;DHT22;21906;50.812;7.132;2022-12-08T04:21:27;6.50;76.70
4107;DHT22;21906;50.812;7.132;2022-12-08T04:23:53;6.50;76.90
4107;DHT22;21906;50.812;7.132;2022-12-08T04:26:19;6.60;76.80
4107;DHT22;21906;50.812;7.132;2022-12-08T04:28:45;6.60;77.10
4107;DHT22;21906;50.812;7.132;2022-12-08T04:31:11;6.50;77.30
4107;DHT22;21906;50.812;7.132;2022-12-08T04:33:37;6.60;77.30
4107;DHT22;21906;50.812;7.132;2022-12-08T04:36:03;6.60;77.40
4107;DHT22;21906;50.812;7.132;2022-12-08T04:38:29;6.70;77.20
4107;DHT22;21906;50.812;7.132;2022-12-08T04:40:55;6.70;77.20
4107;DHT22;21906;50.812;7.132;2022-12-08T04:43:21;6.60;77.30
4107;DHT22;21906;50.812;7.132;2022-12-08T04:45:47;6.60;77.20
4107;DHT22;21906;50.812;7.132;2022-12-08T04:48:12;6.60;77.40
4107;DHT22;21906;50.812;7.132;2022-12-08T04:50:43;6.60;77.40
4107;DHT22;21906;50.812;7.132;2022-12-08T04:53:10;6.70;77.10
4107;DHT22;21906;50.812;7.132;2022-12-08T04:55:41;6.70;77.30
4107;DHT22;21906;50.812;7.132;2022-12-08T04:58:11;6.60;77.40
4107;DHT22;21906;50.812;7.132;2022-12-08T05:00:38;6.50;77.80
4107;DHT22;21906;50.812;7.132;2022-12-08T05:03:04;6.50;77.90
4107;DHT22;21906;50.812;7.132;2022-12-08T05:05:29;6.50;78.00
4107;DHT22;21906;50.812;7.132;2022-12-08T05:07:55;6.50;78.30
4107;DHT22;21906;50.812;7.132;2022-12-08T05:10:21;6.40;78.10
4107;DHT22;21906;50.812;7.132;2022-12-08T05:12:46;6.50;78.30
4107;DHT22;21906;50.812;7.132;2022-12-08T05:15:12;6.40;78.30
4107;DHT22;21906;50.812;7.132;2022-12-08T05:17:38;6.40;78.70
4107;DHT22;21906;50.812;7.132;2022-12-08T05:20:04;6.50;78.60
4107;DHT22;21906;50.812;7.132;2022-12-08T05:22:30;6.50;78.00
4107;DHT22;21906;50.812;7.132;2022-12-08T05:24:55;6.40;78.40
4107;DHT22;21906;50.812;7.132;2022-12-08T05:27:21;6.30;78.30
4107;DHT22;21906;50.812;7.132;2022-12-08T05:29:46;6.40;78.40
4107;DHT22;21906;50.812;7.132;2022-12-08T05:32:13;6.30;78.70
4107;DHT22;21906;50.812;7.132;2022-12-08T05:34:39;6.30;78.40
4107;DHT22;21906;50.812;7.132;2022-12-08T05:37:04;6.30;78.80
4107;DHT22;21906;50.812;7.132;2022-12-08T05:39:30;6.30;78.50
4107;DHT22;21906;50.812;7.132;2022-12-08T05:41:55;6.40;78.60
4107;DHT22;21906;50.812;7.132;2022-12-08T05:44:21;6.30;78.00
4107;DHT22;21906;50.812;7.132;2022-12-08T05:46:47;6.30;78.80
4107;DHT22;21906;50.812;7.132;2022-12-08T05:49:12;6.30;78.80
4107;DHT22;21906;50.812;7.132;2022-12-08T05:51:38;6.20;79.30
4107;DHT22;21906;50.812;7.132;2022-12-08T05:54:04;6.30;78.90
4107;DHT22;21906;50.812;7.132;2022-12-08T05:56:29;6.40;78.70
4107;DHT22;21906;50.812;7.132;2022-12-08T05:58:55;6.40;78.60
4107;DHT22;21906;50.812;7.132;2022-12-08T06:01:29;6.40;78.30
4107;DHT22;21906;50.812;7.132;2022-12-08T06:03:56;6.40;78.30
4107;DHT22;21906;50.812;7.132;2022-12-08T06:06:22;6.30;78.40
4107;DHT22;21906;50.812;7.132;2022-12-08T06:08:48;6.40;78.30
4107;DHT22;21906;50.812;7.132;2022-12-08T06:11:32;6.50;77.90
4107;DHT22;21906;50.812;7.132;2022-12-08T06:13:58;6.40;77.60
4107;DHT22;21906;50.812;7.132;2022-12-08T06:16:25;6.40;77.90
4107;DHT22;21906;50.812;7.132;2022-12-08T06:18:51;6.40;77.90
4107;DHT22;21906;50.812;7.132;2022-12-08T06:21:18;6.50;77.30
4107;DHT22;21906;50.812;7.132;2022-12-08T06:23:50;6.40;77.80
4107;DHT22;21906;50.812;7.132;2022-12-08T06:26:17;6.30;78.20
4107;DHT22;21906;50.812;7.132;2022-12-08T06:28:43;6.40;78.10
4107;DHT22;21906;50.812;7.132;2022-12-08T06:31:13;6.40;78.20
4107;DHT22;21906;50.812;7.132;2022-12-08T06:33:39;6.40;78.10
4107;DHT22;21906;50.812;7.132;2022-12-08T06:36:05;6.40;78.20
4107;DHT22;21906;50.812;7.132;2022-12-08T06:38:31;6.40;78.00
4107;DHT22;21906;50.812;7.132;2022-12-08T06:40:57;6.40;77.60
4107;DHT22;21906;50.812;7.132;2022-12-08T06:43:24;6.40;77.30
4107;DHT22;21906;50.812;7.132;2022-12-08T06:45:50;6.30;77.40
4107;DHT22;21906;50.812;7.132;2022-12-08T06:48:16;6.40;77.20
4107;DHT22;21906;50.812;7.132;2022-12-08T06:50:42;6.40;77.00
4107;DHT22;21906;50.812;7.132;2022-12-08T06:53:09;6.40;77.20
4107;DHT22;21906;50.812;7.132;2022-12-08T06:55:35;6.30;77.30
4107;DHT22;21906;50.812;7.132;2022-12-08T06:58:01;6.30;77.50
4107;DHT22;21906;50.812;7.132;2022-12-08T07:00:26;6.30;77.50
4107;DHT22;21906;50.812;7.132;2022-12-08T07:02:52;6.40;77.20
4107;DHT22;21906;50.812;7.132;2022-12-08T07:05:17;6.20;77.30
4107;DHT22;21906;50.812;7.132;2022-12-08T07:07:43;6.20;77.30
4107;DHT22;21906;50.812;7.132;2022-12-08T07:10:09;6.30;77.00
4107;DHT22;21906;50.812;7.132;2022-12-08T07:12:35;6.20;77.60
4107;DHT22;21906;50.812;7.132;2022-12-08T07:15:00;6.10;77.80
4107;DHT22;21906;50.812;7.132;2022-12-08T07:17:26;6.20;77.60
4107;DHT22;21906;50.812;7.132;2022-12-08T07:19:52;6.20;77.50
4107;DHT22;21906;50.812;7.132;2022-12-08T07:22:17;6.30;77.10
4107;DHT22;21906;50.812;7.132;2022-12-08T07:24:43;6.20;77.70
4107;DHT22;21906;50.812;7.132;2022-12-08T07:27:08;6.20;77.70
4107;DHT22;21906;50.812;7.132;2022-12-08T07:29:34;6.20;77.70
4107;DHT22;21906;50.812;7.132;2022-12-08T07:32:00;6.20;77.60
4107;DHT22;21906;50.812;7.132;2022-12-08T07:34:25;6.20;77.80
4107;DHT22;21906;50.812;7.132;2022-12-08T07:36:51;6.20;77.70
4107;DHT22;21906;50.812;7.132;2022-12-08T07:39:16;6.20;78.00
4107;DHT22;21906;50.812;7.132;2022-12-08T07:41:42;6.20;78.20
4107;DHT22;21906;50.812;7.132;2022-12-08T07:44:08;6.20;78.00
4107;DHT22;21906;50.812;7.132;2022-12-08T07:46:33;6.20;78.10
4107;DHT22;21906;50.812;7.132;2022-12-08T07:48:59;6.20;78.20
4107;DHT22;21906;50.812;7.132;2022-12-08T07:51:25;6.30;78.20
4107;DHT22;21906;50.812;7.132;2022-12-08T07:53:51;6.20;77.80
4107;DHT22;21906;50.812;7.132;2022-12-08T07:56:17;6.30;77.80
4107;DHT22;21906;50.812;7.132;2022-12-08T07:58:43;6.30;77.60
4107;DHT22;21906;50.812;7.132;2022-12-08T08:01:29;6.20;77.40
4107;DHT22;21906;50.812;7.132;2022-12-08T08:03:56;6.20;77.70
4107;DHT22;21906;50.812;7.132;2022-12-08T08:06:22;6.20;77.70
4107;DHT22;21906;50.812;7.132;2022-12-08T08:08:48;6.20;77.20
4107;DHT22;21906;50.812;7.132;2022-12-08T08:11:14;6.20;77.40
4107;DHT22;21906;50.812;7.132;2022-12-08T08:13:40;6.30;77.00
4107;DHT22;21906;50.812;7.132;2022-12-08T08:16:07;6.30;76.70
4107;DHT22;21906;50.812;7.132;2022-12-08T08:18:34;6.30;77.00
4107;DHT22;21906;50.812;7.132;2022-12-08T08:21:00;6.30;76.80
4107;DHT22;21906;50.812;7.132;2022-12-08T08:23:26;6.40;76.90
4107;DHT22;21906;50.812;7.132;2022-12-08T08:25:53;6.20;77.30
4107;DHT22;21906;50.812;7.132;2022-12-08T08:28:19;6.20;77.20
4107;DHT22;21906;50.812;7.132;2022-12-08T08:30:45;6.30;77.30
4107;DHT22;21906;50.812;7.132;2022-12-08T08:33:12;6.20;77.40
4107;DHT22;21906;50.812;7.132;2022-12-08T08:35:38;6.20;77.60
4107;DHT22;21906;50.812;7.132;2022-12-08T08:38:04;6.10;77.70
4107;DHT22;21906;50.812;7.132;2022-12-08T08:40:30;6.10;78.10
4107;DHT22;21906;50.812;7.132;2022-12-08T08:42:55;6.20;78.00
4107;DHT22;21906;50.812;7.132;2022-12-08T08:45:21;6.20;77.70
4107;DHT22;21906;50.812;7.132;2022-12-08T08:47:47;6.20;77.90
4107;DHT22;21906;50.812;7.132;2022-12-08T08:50:13;6.30;77.60
4107;DHT22;21906;50.812;7.132;2022-12-08T08:52:38;6.30;77.40
4107;DHT22;21906;50.812;7.132;2022-12-08T08:55:04;6.30;77.30
4107;DHT22;21906;50.812;7.132;2022-12-08T08:57:30;6.40;76.90
4107;DHT22;21906;50.812;7.132;2022-12-08T08:59:56;6.40;76.50
4107;DHT22;21906;50.812;7.132;2022-12-08T09:02:21;6.40;76.00
4107;DHT22;21906;50.812;7.132;2022-12-08T09:04:47;6.40;76.10
4107;DHT22;21906;50.812;7.132;2022-12-08T09:07:13;6.40;76.00
4107;DHT22;21906;50.812;7.132;2022-12-08T09:09:40;6.50;75.80
4107;DHT22;21906;50.812;7.132;2022-12-08T09:12:06;6.60;75.70
4107;DHT22;21906;50.812;7.132;2022-12-08T09:14:32;6.50;75.40
4107;DHT22;21906;50.812;7.132;2022-12-08T09:16:58;6.50;75.30
4107;DHT22;21906;50.812;7.132;2022-12-08T09:19:23;6.60;75.10
4107;DHT22;21906;50.812;7.132;2022-12-08T09:21:49;6.50;74.40
4107;DHT22;21906;50.812;7.132;2022-12-08T09:24:15;6.70;73.60
4107;DHT22;21906;50.812;7.132;2022-12-08T09:26:44;6.70;73.60
4107;DHT22;21906;50.812;7.132;2022-12-08T09:29:10;6.50;74.00
4107;DHT22;21906;50.812;7.132;2022-12-08T09:31:36;6.50;74.00
4107;DHT22;21906;50.812;7.132;2022-12-08T09:34:03;6.60;73.60
4107;DHT22;21906;50.812;7.132;2022-12-08T09:36:29;6.60;73.70
4107;DHT22;21906;50.812;7.132;2022-12-08T09:38:55;6.60;74.20
4107;DHT22;21906;50.812;7.132;2022-12-08T09:41:44;6.60;73.60
4107;DHT22;21906;50.812;7.132;2022-12-08T09:44:43;6.70;73.60
4107;DHT22;21906;50.812;7.132;2022-12-08T09:47:25;6.60;73.70
4107;DHT22;21906;50.812;7.132;2022-12-08T09:49:58;6.60;73.70
4107;DHT22;21906;50.812;7.132;2022-12-08T09:52:40;6.70;73.60
4107;DHT22;21906;50.812;7.132;2022-12-08T09:55:21;6.70;72.90
4107;DHT22;21906;50.812;7.132;2022-12-08T09:57:57;6.70;73.10
4107;DHT22;21906;50.812;7.132;2022-12-08T10:00:25;6.70;72.40
4107;DHT22;21906;50.812;7.132;2022-12-08T10:02:50;6.70;72.00
4107;DHT22;21906;50.812;7.132;2022-12-08T10:05:16;6.60;72.10
4107;DHT22;21906;50.812;7.132;2022-12-08T10:08:13;6.50;72.80
4107;DHT22;21906;50.812;7.132;2022-12-08T10:10:56;6.60;72.70
4107;DHT22;21906;50.812;7.132;2022-12-08T10:19:06;6.60;72.70
4107;DHT22;21906;50.812;7.132;2022-12-08T10:21:34;6.60;72.00
4107;DHT22;21906;50.812;7.132;2022-12-08T10:24:04;6.60;72.20
4107;DHT22;21906;50.812;7.132;2022-12-08T10:26:33;6.60;72.20
4107;DHT22;21906;50.812;7.132;2022-12-08T10:29:01;6.50;72.70
4107;DHT22;21906;50.812;7.132;2022-12-08T10:31:29;6.50;72.70
4107;DHT22;21906;50.812;7.132;2022-12-08T10:34:15;6.40;73.50
4107;DHT22;21906;50.812;7.132;2022-12-08T10:36:53;6.40;73.70
4107;DHT22;21906;50.812;7.132;2022-12-08T10:39:39;6.40;73.90
4107;DHT22;21906;50.812;7.132;2022-12-08T10:47:28;6.50;74.10
4107;DHT22;21906;50.812;7.132;2022-12-08T10:50:17;6.40;73.80
4107;DHT22;21906;50.812;7.132;2022-12-08T10:52:43;6.50;73.90
4107;DHT22;21906;50.812;7.132;2022-12-08T10:55:17;6.60;73.40
4107;DHT22;21906;50.812;7.132;2022-12-08T10:57:44;6.50;73.80
4107;DHT22;21906;50.812;7.132;2022-12-08T11:00:15;6.40;73.70
4107;DHT22;21906;50.812;7.132;2022-12-08T11:03:02;6.40;74.10
4107;DHT22;21906;50.812;7.132;2022-12-08T11:05:33;6.60;72.90
4107;DHT22;21906;50.812;7.132;2022-12-08T11:08:01;6.60;72.80
4107;DHT22;21906;50.812;7.132;2022-12-08T11:10:36;6.60;72.80
4107;DHT22;21906;50.812;7.132;2022-12-08T11:13:05;6.50;73.30
4107;DHT22;21906;50.812;7.132;2022-12-08T11:15:34;6.50;73.00
4107;DHT22;21906;50.812;7.132;2022-12-08T11:18:28;6.40;73.00
4107;DHT22;21906;50.812;7.132;2022-12-08T11:21:20;6.70;72.30
4107;DHT22;21906;50.812;7.132;2022-12-08T11:23:49;6.70;72.60
4107;DHT22;21906;50.812;7.132;2022-12-08T11:26:35;6.70;72.50
4107;DHT22;21906;50.812;7.132;2022-12-08T11:29:01;6.70;72.10
4107;DHT22;21906;50.812;7.132;2022-12-08T11:31:31;6.80;71.80
4107;DHT22;21906;50.812;7.132;2022-12-08T11:33:59;6.80;72.40
4107;DHT22;21906;50.812;7.132;2022-12-08T11:36:28;6.70;72.40
4107;DHT22;21906;50.812;7.132;2022-12-08T11:38:57;6.70;72.80
4107;DHT22;21906;50.812;7.132;2022-12-08T11:41:32;6.70;72.90
4107;DHT22;21906;50.812;7.132;2022-12-08T11:47:11;6.70;72.70
4107;DHT22;21906;50.812;7.132;2022-12-08T11:49:40;6.80;72.70
4107;DHT22;21906;50.812;7.132;2022-12-08T11:52:29;6.70;73.10
4107;DHT22;21906;50.812;7.132;2022-12-08T11:55:04;6.70;73.00
4107;DHT22;21906;50.812;7.132;2022-12-08T11:57:33;6.80;73.20
4107;DHT22;21906;50.812;7.132;2022-12-08T12:00:00;6.80;72.40
4107;DHT22;21906;50.812;7.132;2022-12-08T12:02:28;6.80;73.00
4107;DHT22;21906;50.812;7.132;2022-12-08T12:05:28;6.80;73.30
4107;DHT22;21906;50.812;7.132;2022-12-08T12:14:07;6.90;72.70
4107;DHT22;21906;50.812;7.132;2022-12-08T12:16:57;7.10;72.00
4107;DHT22;21906;50.812;7.132;2022-12-08T12:19:24;7.10;71.50
4107;DHT22;21906;50.812;7.132;2022-12-08T12:22:05;7.10;71.10
4107;DHT22;21906;50.812;7.132;2022-12-08T12:24:36;7.20;71.90
4107;DHT22;21906;50.812;7.132;2022-12-08T12:27:31;7.30;71.50
4107;DHT22;21906;50.812;7.132;2022-12-08T12:30:02;7.20;71.50
4107;DHT22;21906;50.812;7.132;2022-12-08T12:32:47;7.10;72.30
4107;DHT22;21906;50.812;7.132;2022-12-08T12:35:34;7.10;72.40
4107;DHT22;21906;50.812;7.132;2022-12-08T12:38:42;7.10;71.80
4107;DHT22;21906;50.812;7.132;2022-12-08T12:41:52;7.10;71.00
4107;DHT22;21906;50.812;7.132;2022-12-08T12:57:52;7.20;68.70
4107;DHT22;21906;50.812;7.132;2022-12-08T13:00:23;7.30;68.20
4107;DHT22;21906;50.812;7.132;2022-12-08T13:02:50;7.30;67.40
4107;DHT22;21906;50.812;7.132;2022-12-08T13:07:56;7.30;67.20
4107;DHT22;21906;50.812;7.132;2022-12-08T13:13:17;7.20;67.50
4107;DHT22;21906;50.812;7.132;2022-12-08T13:15:51;7.20;67.40
4107;DHT22;21906;50.812;7.132;2022-12-08T13:21:01;7.20;65.20
4107;DHT22;21906;50.812;7.132;2022-12-08T13:26:15;7.10;66.00
4107;DHT22;21906;50.812;7.132;2022-12-08T13:31:54;7.10;66.80
4107;DHT22;21906;50.812;7.132;2022-12-08T13:37:51;7.10;66.80
4107;DHT22;21906;50.812;7.132;2022-12-08T13:40:23;7.10;66.10
4107;DHT22;21906;50.812;7.132;2022-12-08T13:42:49;7.20;66.10
4107;DHT22;21906;50.812;7.132;2022-12-08T13:45:21;7.20;65.80
4107;DHT22;21906;50.812;7.132;2022-12-08T13:52:57;7.20;65.20
4107;DHT22;21906;50.812;7.132;2022-12-08T13:55:34;7.10;65.50
4107;DHT22;21906;50.812;7.132;2022-12-08T13:58:02;7.20;65.40
4107;DHT22;21906;50.812;7.132;2022-12-08T14:00:28;7.00;65.50
4107;DHT22;21906;50.812;7.132;2022-12-08T14:02:59;7.10;65.50
4107;DHT22;21906;50.812;7.132;2022-12-08T14:05:26;7.10;65.40
4107;DHT22;21906;50.812;7.132;2022-12-08T14:07:55;7.10;65.20
4107;DHT22;21906;50.812;7.132;2022-12-08T14:10:26;7.10;65.40
4107;DHT22;21906;50.812;7.132;2022-12-08T14:13:00;7.10;66.00
4107;DHT22;21906;50.812;7.132;2022-12-08T14:15:27;7.10;65.70
4107;DHT22;21906;50.812;7.132;2022-12-08T14:17:55;7.20;66.00
4107;DHT22;21906;50.812;7.132;2022-12-08T14:20:28;7.20;66.00
4107;DHT22;21906;50.812;7.132;2022-12-08T14:22:54;7.20;66.60
4107;DHT22;21906;50.812;7.132;2022-12-08T14:25:21;7.20;66.40
4107;DHT22;21906;50.812;7.132;2022-12-08T14:27:48;7.30;65.30
4107;DHT22;21906;50.812;7.132;2022-12-08T14:30:18;7.30;65.40
4107;DHT22;21906;50.812;7.132;2022-12-08T14:32:49;7.20;64.80
4107;DHT22;21906;50.812;7.132;2022-12-08T14:35:24;7.20;65.50
4107;DHT22;21906;50.812;7.132;2022-12-08T14:37:54;7.20;65.30
4107;DHT22;21906;50.812;7.132;2022-12-08T14:53:38;7.20;64.60
4107;DHT22;21906;50.812;7.132;2022-12-08T14:58:41;7.00;65.30
4107;DHT22;21906;50.812;7.132;2022-12-08T15:01:07;7.00;65.70
4107;DHT22;21906;50.812;7.132;2022-12-08T15:03:36;7.00;66.20
4107;DHT22;21906;50.812;7.132;2022-12-08T15:06:04;7.10;65.70
4107;DHT22;21906;50.812;7.132;2022-12-08T15:08:31;7.00;64.30
4107;DHT22;21906;50.812;7.132;2022-12-08T15:11:33;6.90;65.10
4107;DHT22;21906;50.812;7.132;2022-12-08T15:13:59;7.00;64.20
4107;DHT22;21906;50.812;7.132;2022-12-08T15:16:36;7.00;64.20
4107;DHT22;21906;50.812;7.132;2022-12-08T15:19:14;6.90;64.90
4107;DHT22;21906;50.812;7.132;2022-12-08T15:21:41;6.90;65.10
4107;DHT22;21906;50.812;7.132;2022-12-08T15:24:13;6.90;65.10
4107;DHT22;21906;50.812;7.132;2022-12-08T15:26:47;6.80;64.80
4107;DHT22;21906;50.812;7.132;2022-12-08T15:29:22;6.80;65.40
4107;DHT22;21906;50.812;7.132;2022-12-08T15:31:50;6.90;65.20
4107;DHT22;21906;50.812;7.132;2022-12-08T15:34:17;6.90;65.50
4107;DHT22;21906;50.812;7.132;2022-12-08T15:36:43;7.00;65.10
4107;DHT22;21906;50.812;7.132;2022-12-08T15:39:32;6.90;65.20
4107;DHT22;21906;50.812;7.132;2022-12-08T15:41:59;6.90;65.50
4107;DHT22;21906;50.812;7.132;2022-12-08T15:44:26;6.90;65.60
4107;DHT22;21906;50.812;7.132;2022-12-08T15:46:52;6.80;65.60
4107;DHT22;21906;50.812;7.132;2022-12-08T15:49:21;6.70;65.60
4107;DHT22;21906;50.812;7.132;2022-12-08T15:51:48;6.60;65.90
4107;DHT22;21906;50.812;7.132;2022-12-08T15:54:14;6.60;66.00
4107;DHT22;21906;50.812;7.132;2022-12-08T15:56:49;6.60;66.00
4107;DHT22;21906;50.812;7.132;2022-12-08T15:59:17;6.60;65.90
4107;DHT22;21906;50.812;7.132;2022-12-08T16:01:44;6.60;66.00
4107;DHT22;21906;50.812;7.132;2022-12-08T16:04:20;6.50;66.00
4107;DHT22;21906;50.812;7.132;2022-12-08T16:06:48;6.60;65.80
4107;DHT22;21906;50.812;7.132;2022-12-08T16:09:35;6.40;65.90
4107;DHT22;21906;50.812;7.132;2022-12-08T16:12:03;6.40;66.10
4107;DHT22;21906;50.812;7.132;2022-12-08T16:14:47;6.50;66.30
4107;DHT22;21906;50.812;7.132;2022-12-08T16:17:14;6.60;65.70
4107;DHT22;21906;50.812;7.132;2022-12-08T16:19:40;6.50;66.00
4107;DHT22;21906;50.812;7.132;2022-12-08T16:22:09;6.60;65.80
4107;DHT22;21906;50.812;7.132;2022-12-08T16:24:38;6.60;65.40
4107;DHT22;21906;50.812;7.132;2022-12-08T16:27:03;6.60;65.30
4107;DHT22;21906;50.812;7.132;2022-12-08T16:29:29;6.60;65.10
4107;DHT22;21906;50.812;7.132;2022-12-08T16:31:54;6.60;65.40
4107;DHT22;21906;50.812;7.132;2022-12-08T16:34:20;6.50;65.70
4107;DHT22;21906;50.812;7.132;2022-12-08T16:36:46;6.50;65.70
4107;DHT22;21906;50.812;7.132;2022-12-08T16:39:12;6.50;65.30
4107;DHT22;21906;50.812;7.132;2022-12-08T16:41:38;6.40;65.40
4107;DHT22;21906;50.812;7.132;2022-12-08T16:44:23;6.40;65.90
4107;DHT22;21906;50.812;7.132;2022-12-08T16:46:48;6.40;66.00
4107;DHT22;21906;50.812;7.132;2022-12-08T16:49:14;6.40;66.50
4107;DHT22;21906;50.812;7.132;2022-12-08T16:51:41;6.40;65.40
4107;DHT22;21906;50.812;7.132;2022-12-08T16:54:07;6.30;65.70
4107;DHT22;21906;50.812;7.132;2022-12-08T16:56:33;6.40;65.60
4107;DHT22;21906;50.812;7.132;2022-12-08T16:59:00;6.40;65.60
4107;DHT22;21906;50.812;7.132;2022-12-08T17:01:26;6.40;65.50
4107;DHT22;21906;50.812;7.132;2022-12-08T17:03:52;6.40;65.00
4107;DHT22;21906;50.812;7.132;2022-12-08T17:06:18;6.40;64.90
4107;DHT22;21906;50.812;7.132;2022-12-08T17:08:44;6.20;64.90
4107;DHT22;21906;50.812;7.132;2022-12-08T17:11:22;6.20;65.30
4107;DHT22;21906;50.812;7.132;2022-12-08T17:13:49;6.20;65.50
4107;DHT22;21906;50.812;7.132;2022-12-08T17:16:16;6.20;65.70
4107;DHT22;21906;50.812;7.132;2022-12-08T17:18:43;6.20;65.40
4107;DHT22;21906;50.812;7.132;2022-12-08T17:21:10;6.20;65.40
4107;DHT22;21906;50.812;7.132;2022-12-08T17:23:37;6.30;65.50
4107;DHT22;21906;50.812;7.132;2022-12-08T17:26:02;6.20;65.50
4107;DHT22;21906;50.812;7.132;2022-12-08T17:28:28;6.20;65.50
4107;DHT22;21906;50.812;7.132;2022-12-08T17:30:54;6.20;65.30
4107;DHT22;21906;50.812;7.132;2022-12-08T17:33:20;6.20;65.20
4107;DHT22;21906;50.812;7.132;2022-12-08T17:35:51;6.00;65.20
4107;DHT22;21906;50.812;7.132;2022-12-08T17:38:18;6.10;65.40
4107;DHT22;21906;50.812;7.132;2022-12-08T17:40:44;6.00;65.60
4107;DHT22;21906;50.812;7.132;2022-12-08T17:43:11;6.00;65.50
4107;DHT22;21906;50.812;7.132;2022-12-08T17:45:42;6.00;65.70
4107;DHT22;21906;50.812;7.132;2022-12-08T17:48:08;6.00;65.40
4107;DHT22;21906;50.812;7.132;2022-12-08T17:50:38;5.90;65.50
4107;DHT22;21906;50.812;7.132;2022-12-08T17:53:04;5.90;65.80
4107;DHT22;21906;50.812;7.132;2022-12-08T17:55:29;5.90;65.90
4107;DHT22;21906;50.812;7.132;2022-12-08T17:57:55;5.80;66.00
4107;DHT22;21906;50.812;7.132;2022-12-08T18:00:21;5.70;66.00
4107;DHT22;21906;50.812;7.132;2022-12-08T18:02:46;5.70;66.20
4107;DHT22;21906;50.812;7.132;2022-12-08T18:05:12;5.70;66.30
4107;DHT22;21906;50.812;7.132;2022-12-08T18:07:38;5.70;66.40
4107;DHT22;21906;50.812;7.132;2022-12-08T18:10:04;5.60;66.60